createdAt,value
2017-06-08T00:01:33.900Z,6.53
2017-06-08T00:04:01.218Z,6.50
2017-06-08T00:06:28.533Z,6.37
2017-06-08T00:08:55.833Z,7.13
2017-06-08T00:11:23.145Z,6.80
2017-06-08T00:13:50.439Z,6.90
2017-06-08T00:16:17.745Z,6.50
2017-06-08T00:18:45.053Z,6.70
2017-06-08T00:21:12.386Z,7.00
2017-06-08T00:23:39.720Z,7.20
2017-06-08T00:26:07.036Z,7.07
2017-06-08T00:28:34.338Z,7.07
2017-06-08T00:31:01.649Z,7.27
2017-06-08T00:33:28.978Z,7.03
2017-06-08T00:35:56.289Z,7.10
2017-06-08T00:38:23.869Z,7.60
2017-06-08T00:40:51.198Z,7.40
2017-06-08T00:43:18.513Z,8.10
2017-06-08T00:45:45.831Z,7.77
2017-06-08T00:48:13.160Z,7.50
2017-06-08T00:50:40.473Z,7.37
2017-06-08T00:53:07.820Z,6.77
2017-06-08T00:55:35.153Z,6.90
2017-06-08T00:58:02.506Z,7.10
2017-06-08T01:00:29.839Z,6.97
2017-06-08T01:02:57.150Z,6.60
2017-06-08T01:05:24.454Z,6.83
2017-06-08T01:07:51.766Z,6.40
2017-06-08T01:10:19.301Z,7.10
2017-06-08T01:12:46.606Z,6.20
2017-06-08T01:15:13.917Z,7.80
2017-06-08T01:17:41.216Z,7.00
2017-06-08T01:20:08.536Z,7.00
2017-06-08T01:22:35.832Z,6.03
2017-06-08T01:25:03.170Z,6.93
2017-06-08T01:27:30.490Z,6.40
2017-06-08T01:29:57.846Z,6.17
2017-06-08T01:32:25.177Z,6.73
2017-06-08T01:34:52.525Z,6.60
2017-06-08T01:37:19.857Z,6.07
2017-06-08T01:39:47.201Z,6.70
2017-06-08T01:42:14.517Z,6.70
2017-06-08T01:44:41.838Z,6.37
2017-06-08T01:47:09.160Z,6.40
2017-06-08T01:49:36.455Z,5.93
2017-06-08T01:52:03.764Z,6.37
2017-06-08T01:54:31.070Z,6.70
2017-06-08T01:56:58.390Z,6.70
2017-06-08T01:59:25.709Z,5.83
2017-06-08T02:01:53.005Z,6.13
2017-06-08T02:04:20.338Z,6.53
2017-06-08T02:06:47.975Z,6.77
2017-06-08T02:09:15.313Z,6.00
2017-06-08T02:11:43.013Z,6.30
2017-06-08T02:14:10.313Z,5.90
2017-06-08T02:16:37.611Z,6.30
2017-06-08T02:19:04.933Z,6.40
2017-06-08T02:21:32.236Z,6.60
2017-06-08T02:23:59.559Z,5.90
2017-06-08T02:26:26.890Z,5.87
2017-06-08T02:28:55.153Z,5.37
2017-06-08T02:31:22.497Z,5.83
2017-06-08T02:33:49.825Z,6.30
2017-06-08T02:36:17.134Z,6.20
2017-06-08T02:38:44.430Z,5.03
2017-06-08T02:41:11.766Z,5.67
2017-06-08T02:43:39.077Z,5.60
2017-06-08T02:46:06.384Z,5.70
2017-06-08T02:48:33.678Z,5.53
2017-06-08T02:51:01.020Z,5.73
2017-06-08T02:53:28.341Z,5.10
2017-06-08T02:55:55.644Z,5.60
2017-06-08T02:58:22.948Z,5.33
2017-06-08T03:00:50.261Z,5.73
2017-06-08T03:03:17.576Z,5.57
2017-06-08T03:05:45.074Z,5.83
2017-06-08T03:08:12.613Z,5.40
2017-06-08T03:10:39.905Z,5.23
2017-06-08T03:13:07.230Z,5.10
2017-06-08T03:15:34.533Z,4.93
2017-06-08T03:18:02.056Z,5.87
2017-06-08T03:20:29.365Z,5.00
2017-06-08T03:22:56.657Z,5.00
2017-06-08T03:25:24.096Z,5.00
2017-06-08T03:27:51.417Z,4.93
2017-06-08T03:30:18.730Z,5.20
2017-06-08T03:32:46.029Z,5.07
2017-06-08T03:35:13.356Z,4.60
2017-06-08T03:37:40.681Z,4.93
2017-06-08T03:40:08.043Z,5.17
2017-06-08T03:42:35.370Z,5.40
2017-06-08T03:45:02.682Z,4.77
2017-06-08T03:47:29.981Z,5.00
2017-06-08T03:49:57.279Z,4.37
2017-06-08T03:52:24.600Z,4.50
2017-06-08T03:54:51.893Z,5.13
2017-06-08T03:57:19.535Z,5.10
2017-06-08T03:59:46.866Z,4.20
2017-06-08T04:02:14.175Z,4.13
2017-06-08T04:04:41.473Z,4.00
2017-06-08T04:07:08.802Z,4.60
2017-06-08T04:09:36.594Z,4.40
2017-06-08T04:12:03.897Z,4.20
2017-06-08T04:14:31.227Z,5.00
2017-06-08T04:16:58.566Z,4.27
2017-06-08T04:19:25.881Z,4.33
2017-06-08T04:21:53.182Z,4.40
2017-06-08T04:24:21.418Z,4.60
2017-06-08T04:26:48.742Z,4.60
2017-06-08T04:29:16.064Z,4.80
2017-06-08T04:31:43.390Z,4.63
2017-06-08T04:34:10.694Z,3.93
2017-06-08T04:36:38.018Z,4.30
2017-06-08T04:39:05.356Z,4.67
2017-06-08T04:41:32.693Z,4.30
2017-06-08T04:43:59.990Z,4.33
2017-06-08T04:46:27.300Z,4.13
2017-06-08T04:48:54.620Z,4.47
2017-06-08T04:51:22.160Z,4.57
2017-06-08T04:53:50.425Z,4.20
2017-06-08T04:56:18.072Z,4.10
2017-06-08T04:58:45.705Z,4.50
2017-06-08T05:01:13.030Z,5.20
2017-06-08T05:03:40.318Z,4.53
2017-06-08T05:06:07.645Z,4.20
2017-06-08T05:08:35.006Z,4.10
2017-06-08T05:11:02.322Z,4.23
2017-06-08T05:13:29.686Z,4.13
2017-06-08T05:15:57.017Z,4.73
2017-06-08T05:18:24.687Z,4.40
2017-06-08T05:20:51.985Z,4.47
2017-06-08T05:23:19.550Z,4.30
2017-06-08T05:25:46.878Z,4.10
2017-06-08T05:28:14.420Z,4.50
2017-06-08T05:30:41.794Z,4.10
2017-06-08T05:33:09.124Z,4.10
2017-06-08T05:35:36.793Z,4.10
2017-06-08T05:38:04.101Z,4.20
2017-06-08T05:40:31.412Z,4.00
2017-06-08T05:42:58.722Z,3.93
2017-06-08T05:45:28.355Z,3.97
2017-06-08T05:47:56.751Z,4.23
2017-06-08T05:50:24.297Z,4.10
2017-06-08T05:52:51.609Z,3.93
2017-06-08T05:55:18.946Z,4.10
2017-06-08T05:57:46.413Z,3.83
2017-06-08T06:00:13.713Z,3.90
2017-06-08T06:02:41.026Z,3.97
2017-06-08T06:05:08.326Z,3.60
2017-06-08T06:07:35.642Z,4.37
2017-06-08T06:10:02.932Z,3.73
2017-06-08T06:12:30.248Z,3.30
2017-06-08T06:14:57.540Z,3.30
2017-06-08T06:17:24.849Z,3.10
2017-06-08T06:19:52.165Z,3.97
2017-06-08T06:22:19.729Z,3.20
2017-06-08T06:24:47.058Z,3.30
2017-06-08T06:27:14.357Z,3.47
2017-06-08T06:29:41.678Z,3.80
2017-06-08T06:32:08.976Z,3.60
2017-06-08T06:34:36.294Z,2.90
2017-06-08T06:37:03.605Z,3.97
2017-06-08T06:39:30.916Z,3.40
2017-06-08T06:41:58.233Z,3.13
2017-06-08T06:44:25.548Z,3.27
2017-06-08T06:46:52.842Z,3.37
2017-06-08T06:49:20.172Z,2.90
2017-06-08T06:51:47.509Z,3.20
2017-06-08T06:54:14.805Z,2.97
2017-06-08T06:56:42.129Z,2.40
2017-06-08T06:59:09.417Z,2.60
2017-06-08T07:01:36.729Z,3.17
2017-06-08T07:04:04.021Z,3.77
2017-06-08T07:06:31.353Z,3.17
2017-06-08T07:08:58.692Z,2.83
2017-06-08T07:11:25.993Z,3.10
2017-06-08T07:13:53.292Z,3.00
2017-06-08T07:16:20.621Z,2.97
2017-06-08T07:18:47.965Z,2.80
2017-06-08T07:21:15.301Z,2.90
2017-06-08T07:23:42.649Z,2.90
2017-06-08T07:26:09.983Z,2.90
2017-06-08T07:28:37.443Z,3.07
2017-06-08T07:31:04.770Z,3.20
2017-06-08T07:33:32.116Z,3.13
2017-06-08T07:35:59.437Z,2.87
2017-06-08T07:38:26.745Z,2.83
2017-06-08T07:40:54.045Z,2.47
2017-06-08T07:43:21.361Z,2.73
2017-06-08T07:45:48.697Z,3.00
2017-06-08T07:48:15.991Z,2.97
2017-06-08T07:50:43.327Z,3.03
2017-06-08T07:53:10.624Z,3.00
2017-06-08T07:55:37.942Z,2.77
2017-06-08T07:58:05.238Z,2.83
2017-06-08T08:00:32.562Z,2.93
2017-06-08T08:03:15.697Z,2.97
2017-06-08T08:05:43.210Z,2.70
2017-06-08T08:08:10.537Z,3.30
2017-06-08T08:10:37.852Z,2.60
2017-06-08T08:13:05.168Z,3.10
2017-06-08T08:15:32.465Z,2.37
2017-06-08T08:17:59.777Z,2.40
2017-06-08T08:20:27.093Z,3.10
2017-06-08T08:22:54.501Z,2.90
2017-06-08T08:25:21.813Z,2.40
2017-06-08T08:27:49.128Z,2.50
2017-06-08T08:30:16.427Z,2.73
2017-06-08T08:32:43.785Z,2.70
2017-06-08T08:35:11.080Z,2.67
2017-06-08T08:37:38.372Z,2.67
2017-06-08T08:40:05.692Z,3.03
2017-06-08T08:42:33.006Z,3.03
2017-06-08T08:45:00.406Z,2.77
2017-06-08T08:47:27.694Z,3.10
2017-06-08T08:49:55.005Z,2.50
2017-06-08T08:52:22.297Z,3.17
2017-06-08T08:54:49.922Z,3.30
2017-06-08T08:57:17.229Z,2.77
2017-06-08T08:59:44.521Z,2.70
2017-06-08T09:02:11.842Z,3.10
2017-06-08T09:04:39.143Z,2.70
2017-06-08T09:07:06.476Z,3.03
2017-06-08T09:09:33.781Z,3.30
2017-06-08T09:12:01.122Z,2.93
2017-06-08T09:14:28.452Z,2.77
2017-06-08T09:16:55.815Z,3.17
2017-06-08T09:19:23.136Z,2.70
2017-06-08T09:21:50.471Z,3.23
2017-06-08T09:24:17.787Z,3.37
2017-06-08T09:26:45.089Z,2.77
2017-06-08T09:29:12.428Z,2.73
2017-06-08T09:31:39.765Z,2.90
2017-06-08T09:34:07.068Z,3.20
2017-06-08T09:36:34.365Z,2.93
2017-06-08T09:39:01.975Z,2.70
2017-06-08T09:41:29.301Z,3.00
2017-06-08T09:43:56.609Z,2.73
2017-06-08T09:46:23.998Z,2.80
2017-06-08T09:48:51.345Z,2.87
2017-06-08T09:51:18.661Z,3.60
2017-06-08T09:53:45.958Z,3.00
2017-06-08T09:56:13.609Z,3.20
2017-06-08T09:58:40.898Z,3.30
2017-06-08T10:01:08.245Z,2.87
2017-06-08T10:03:35.595Z,2.70
2017-06-08T10:06:02.938Z,3.37
2017-06-08T10:08:30.254Z,2.83
2017-06-08T10:10:57.576Z,2.57
2017-06-08T10:13:24.905Z,2.70
2017-06-08T10:15:52.201Z,2.43
2017-06-08T10:18:19.841Z,2.40
2017-06-08T10:20:47.165Z,2.50
2017-06-08T10:23:14.518Z,2.13
2017-06-08T10:25:41.858Z,2.60
2017-06-08T10:28:09.186Z,1.90
2017-06-08T10:30:36.481Z,2.20
2017-06-08T10:33:04.673Z,2.53
2017-06-08T10:35:31.975Z,2.00
2017-06-08T10:37:59.289Z,2.10
2017-06-08T10:40:26.620Z,1.90
2017-06-08T10:42:54.296Z,1.93
2017-06-08T10:45:21.629Z,1.70
2017-06-08T10:47:48.953Z,1.70
2017-06-08T10:50:16.268Z,2.00
2017-06-08T10:52:43.634Z,1.77
2017-06-08T10:55:10.940Z,1.77
2017-06-08T10:57:38.326Z,1.57
2017-06-08T11:00:06.073Z,1.57
2017-06-08T11:02:33.420Z,1.67
2017-06-08T11:05:00.752Z,1.50
2017-06-08T11:07:28.102Z,1.40
2017-06-08T11:09:55.419Z,1.60
2017-06-08T11:12:22.769Z,1.70
2017-06-08T11:14:50.070Z,1.70
2017-06-08T11:17:17.376Z,1.90
2017-06-08T11:19:44.696Z,1.73
2017-06-08T11:22:12.009Z,1.50
2017-06-08T11:24:39.310Z,1.70
2017-06-08T11:27:06.626Z,2.40
2017-06-08T11:29:33.989Z,1.90
2017-06-08T11:32:01.301Z,2.63
2017-06-08T11:34:28.629Z,1.93
2017-06-08T11:36:55.917Z,2.00
2017-06-08T11:39:23.225Z,2.10
2017-06-08T11:41:50.545Z,1.87
2017-06-08T11:44:17.878Z,1.90
2017-06-08T11:46:45.177Z,2.10
2017-06-08T11:49:12.480Z,1.90
2017-06-08T11:51:39.823Z,2.10
2017-06-08T11:54:07.186Z,2.03
2017-06-08T11:56:34.497Z,1.87
2017-06-08T11:59:01.810Z,2.13
2017-06-08T12:01:29.106Z,2.30
2017-06-08T12:03:56.428Z,2.07
2017-06-08T12:06:23.749Z,2.40
2017-06-08T12:08:51.074Z,2.67
2017-06-08T12:11:18.365Z,2.40
2017-06-08T12:13:45.689Z,2.63
2017-06-08T12:16:13.019Z,2.53
2017-06-08T12:18:40.300Z,3.07
2017-06-08T12:21:07.628Z,2.83
2017-06-08T12:23:34.978Z,2.67
2017-06-08T12:26:02.310Z,2.53
2017-06-08T12:28:29.625Z,2.43
2017-06-08T12:30:56.943Z,2.80
2017-06-08T12:33:24.260Z,2.70
2017-06-08T12:35:51.564Z,2.90
2017-06-08T12:38:19.205Z,2.73
2017-06-08T12:40:46.502Z,2.73
2017-06-08T12:43:13.810Z,2.80
2017-06-08T12:45:41.125Z,2.53
2017-06-08T12:48:08.443Z,2.87
2017-06-08T12:50:35.757Z,2.70
2017-06-08T12:53:03.065Z,2.80
2017-06-08T12:55:30.384Z,3.00
2017-06-08T12:57:57.734Z,3.17
2017-06-08T13:00:25.287Z,3.10
2017-06-08T13:02:52.638Z,3.20
2017-06-08T13:05:20.272Z,3.13
2017-06-08T13:07:47.600Z,3.20
2017-06-08T13:10:14.915Z,3.30
2017-06-08T13:12:42.221Z,3.57
2017-06-08T13:15:09.541Z,3.10
2017-06-08T13:17:36.867Z,3.20
2017-06-08T13:20:04.183Z,3.20
2017-06-08T13:22:31.471Z,2.93
2017-06-08T13:24:58.801Z,3.10
2017-06-08T13:27:26.330Z,3.50
2017-06-08T13:29:54.905Z,3.53
2017-06-08T13:32:22.262Z,3.90
2017-06-08T13:34:49.589Z,3.23
2017-06-08T13:37:16.965Z,3.50
2017-06-08T13:39:44.269Z,3.63
2017-06-08T13:42:11.586Z,3.60
2017-06-08T13:44:38.958Z,3.40
2017-06-08T13:47:06.245Z,3.43
2017-06-08T13:49:33.569Z,4.00
2017-06-08T13:52:00.856Z,3.67
2017-06-08T13:54:28.170Z,3.50
2017-06-08T13:56:55.466Z,3.50
2017-06-08T13:59:22.805Z,4.17
2017-06-08T14:01:50.330Z,3.70
2017-06-08T14:04:17.639Z,3.67
2017-06-08T14:06:44.925Z,3.77
2017-06-08T14:09:12.273Z,3.17
2017-06-08T14:11:39.585Z,3.23
2017-06-08T14:14:06.942Z,3.70
2017-06-08T14:16:34.265Z,3.53
2017-06-08T14:19:01.565Z,2.90
2017-06-08T14:21:28.881Z,3.00
2017-06-08T14:23:56.507Z,3.63
2017-06-08T14:26:23.861Z,3.00
2017-06-08T14:28:51.186Z,2.67
2017-06-08T14:31:18.507Z,3.00
2017-06-08T14:33:45.801Z,2.90
2017-06-08T14:36:13.121Z,2.97
2017-06-08T14:38:40.762Z,2.70
2017-06-08T14:41:08.094Z,2.87
2017-06-08T14:43:35.461Z,3.07
2017-06-08T14:46:02.780Z,2.60
2017-06-08T14:48:30.106Z,2.63
2017-06-08T14:50:57.409Z,2.67
2017-06-08T14:53:25.029Z,3.07
2017-06-08T14:55:52.379Z,2.93
2017-06-08T14:58:19.702Z,2.77
2017-06-08T15:00:47.002Z,2.80
2017-06-08T15:03:14.297Z,3.30
2017-06-08T15:05:41.636Z,3.07
2017-06-08T15:08:09.723Z,3.20
2017-06-08T15:10:37.028Z,2.83
2017-06-08T15:13:04.358Z,3.20
2017-06-08T15:15:31.676Z,3.30
2017-06-08T15:17:58.981Z,3.17
2017-06-08T15:20:26.486Z,3.17
2017-06-08T15:22:53.825Z,3.20
2017-06-08T15:25:21.277Z,3.27
2017-06-08T15:27:48.635Z,2.90
2017-06-08T15:30:15.938Z,3.07
2017-06-08T15:32:43.244Z,2.90
2017-06-08T15:35:10.598Z,3.13
2017-06-08T15:37:37.907Z,2.80
2017-06-08T15:40:05.689Z,2.97
2017-06-08T15:42:32.977Z,2.87
2017-06-08T15:45:00.348Z,2.90
2017-06-08T15:47:27.658Z,2.90
2017-06-08T15:49:55.113Z,3.50
2017-06-08T15:52:22.412Z,2.83
2017-06-08T15:54:50.309Z,3.07
2017-06-08T15:57:17.631Z,3.23
2017-06-08T15:59:44.986Z,2.77
2017-06-08T16:02:12.314Z,2.90
2017-06-08T16:04:39.671Z,2.80
2017-06-08T16:07:07.000Z,3.53
2017-06-08T16:09:34.347Z,3.00
2017-06-08T16:12:01.679Z,2.50
2017-06-08T16:14:29.018Z,2.80
2017-06-08T16:16:56.692Z,2.53
2017-06-08T16:19:23.995Z,3.27
2017-06-08T16:21:51.315Z,2.77
2017-06-08T16:24:18.618Z,2.40
2017-06-08T16:26:45.950Z,2.33
2017-06-08T16:29:13.266Z,2.10
2017-06-08T16:31:40.588Z,2.27
2017-06-08T16:34:07.889Z,2.87
2017-06-08T16:36:35.232Z,2.60
2017-06-08T16:39:02.553Z,2.90
2017-06-08T16:41:29.902Z,2.93
2017-06-08T16:43:57.239Z,2.80
2017-06-08T16:46:24.579Z,2.60
2017-06-08T16:48:51.892Z,2.70
2017-06-08T16:51:19.234Z,2.87
2017-06-08T16:53:46.549Z,3.00
2017-06-08T16:56:13.845Z,2.93
2017-06-08T16:58:41.166Z,2.70
2017-06-08T17:01:08.499Z,2.83
2017-06-08T17:03:35.957Z,2.60
2017-06-08T17:06:03.255Z,2.90
2017-06-08T17:08:30.570Z,3.00
2017-06-08T17:10:57.868Z,2.83
2017-06-08T17:13:25.214Z,2.87
2017-06-08T17:15:52.536Z,2.70
2017-06-08T17:18:19.860Z,2.63
2017-06-08T17:20:47.154Z,3.17
2017-06-08T17:23:14.482Z,2.90
2017-06-08T17:25:41.817Z,2.90
2017-06-08T17:28:09.179Z,2.80
2017-06-08T17:30:36.489Z,2.90
2017-06-08T17:33:03.803Z,3.20
2017-06-08T17:35:31.116Z,3.50
2017-06-08T17:37:58.423Z,3.17
2017-06-08T17:40:25.740Z,3.13
2017-06-08T17:42:53.057Z,2.70
2017-06-08T17:45:20.462Z,3.73
2017-06-08T17:47:47.777Z,2.77
2017-06-08T17:50:15.090Z,2.97
2017-06-08T17:52:42.389Z,3.10
2017-06-08T17:55:09.714Z,2.80
2017-06-08T17:57:37.032Z,2.90
2017-06-08T18:00:04.354Z,3.10
2017-06-08T18:02:31.669Z,3.30
2017-06-08T18:04:58.978Z,3.47
2017-06-08T18:07:26.340Z,3.10
2017-06-08T18:09:53.637Z,3.47
2017-06-08T18:12:20.949Z,3.00
2017-06-08T18:14:48.249Z,3.20
2017-06-08T18:17:15.586Z,3.60
2017-06-08T18:19:42.886Z,3.47
2017-06-08T18:22:10.206Z,3.50
2017-06-08T18:24:37.502Z,3.57
2017-06-08T18:27:04.906Z,3.70
2017-06-08T18:29:32.201Z,3.77
2017-06-08T18:31:59.535Z,3.70
2017-06-08T18:34:26.849Z,4.10
2017-06-08T18:36:54.214Z,3.90
2017-06-08T18:39:21.590Z,4.20
2017-06-08T18:41:49.085Z,3.77
2017-06-08T18:44:16.424Z,3.60
2017-06-08T18:46:43.753Z,4.30
2017-06-08T18:49:11.071Z,4.27
2017-06-08T18:51:38.377Z,3.90
2017-06-08T18:54:05.810Z,4.30
2017-06-08T18:56:33.125Z,4.47
2017-06-08T18:59:00.481Z,4.60
2017-06-08T19:01:27.795Z,4.33
2017-06-08T19:03:55.366Z,5.03
2017-06-08T19:06:22.679Z,4.60
2017-06-08T19:08:49.995Z,4.47
2017-06-08T19:11:17.293Z,4.50
2017-06-08T19:13:44.655Z,4.30
2017-06-08T19:16:11.960Z,4.17
2017-06-08T19:18:39.321Z,4.43
2017-06-08T19:21:06.746Z,4.43
2017-06-08T19:23:34.109Z,5.00
2017-06-08T19:26:01.410Z,4.40
2017-06-08T19:28:28.701Z,4.30
2017-06-08T19:30:56.036Z,4.60
2017-06-08T19:33:23.336Z,6.10
2017-06-08T19:35:50.702Z,4.20
2017-06-08T19:38:18.042Z,5.40
2017-06-08T19:40:45.386Z,4.20
2017-06-08T19:43:12.702Z,4.30
2017-06-08T19:45:40.027Z,3.70
2017-06-08T19:48:07.329Z,4.27
2017-06-08T19:50:34.658Z,4.90
2017-06-08T19:53:01.966Z,4.70
2017-06-08T19:55:29.282Z,4.90
2017-06-08T19:57:56.584Z,5.43
2017-06-08T20:00:23.910Z,5.20
2017-06-08T20:02:51.222Z,4.97
2017-06-08T20:05:18.540Z,5.87
2017-06-08T20:07:45.845Z,6.67
2017-06-08T20:10:13.182Z,5.83
2017-06-08T20:12:40.553Z,5.90
2017-06-08T20:15:07.865Z,5.97
2017-06-08T20:17:35.243Z,5.80
2017-06-08T20:20:02.549Z,5.40
2017-06-08T20:22:29.874Z,5.80
2017-06-08T20:24:57.165Z,5.20
2017-06-08T20:27:24.503Z,5.70
2017-06-08T20:29:51.812Z,5.40
2017-06-08T20:32:19.174Z,5.00
2017-06-08T20:34:46.502Z,5.40
2017-06-08T20:37:13.855Z,5.20
2017-06-08T20:39:41.175Z,5.50
2017-06-08T20:42:08.525Z,5.23
2017-06-08T20:44:35.874Z,5.30
2017-06-08T20:47:03.554Z,5.93
2017-06-08T20:49:30.861Z,5.37
2017-06-08T20:51:58.588Z,5.03
2017-06-08T20:54:25.898Z,5.50
2017-06-08T20:56:53.222Z,4.97
2017-06-08T20:59:21.041Z,5.10
2017-06-08T21:01:48.370Z,4.97
2017-06-08T21:04:15.746Z,5.13
2017-06-08T21:06:43.085Z,5.30
2017-06-08T21:09:10.401Z,4.83
2017-06-08T21:11:37.747Z,5.53
2017-06-08T21:14:05.118Z,4.93
2017-06-08T21:16:32.435Z,5.10
2017-06-08T21:18:59.788Z,5.00
2017-06-08T21:21:27.129Z,5.20
2017-06-08T21:23:54.441Z,5.37
2017-06-08T21:26:21.790Z,5.10
2017-06-08T21:28:49.125Z,5.13
2017-06-08T21:31:16.495Z,5.30
2017-06-08T21:33:43.818Z,5.40
2017-06-08T21:36:11.161Z,5.43
2017-06-08T21:38:38.502Z,5.70
2017-06-08T21:41:05.844Z,5.40
2017-06-08T21:43:33.180Z,4.87
2017-06-08T21:46:00.526Z,5.20
2017-06-08T21:48:27.838Z,6.27
2017-06-08T21:50:55.177Z,5.37
2017-06-08T21:53:22.473Z,5.40
2017-06-08T21:55:49.787Z,5.83
2017-06-08T21:58:17.122Z,5.90
2017-06-08T22:00:44.433Z,6.33
2017-06-08T22:03:11.757Z,5.63
2017-06-08T22:05:39.053Z,5.73
2017-06-08T22:08:06.402Z,5.53
2017-06-08T22:10:33.719Z,6.33
2017-06-08T22:13:01.064Z,5.70
2017-06-08T22:15:28.394Z,6.20
2017-06-08T22:17:55.844Z,6.40
2017-06-08T22:20:23.343Z,5.83
2017-06-08T22:22:50.950Z,6.37
2017-06-08T22:25:18.282Z,6.20
2017-06-08T22:27:45.645Z,6.13
2017-06-08T22:30:12.947Z,6.60
2017-06-08T22:32:40.246Z,6.43
2017-06-08T22:35:07.553Z,5.80
2017-06-08T22:37:34.900Z,6.30
2017-06-08T22:40:02.235Z,6.47
2017-06-08T22:42:29.541Z,6.43
2017-06-08T22:44:56.888Z,6.43
2017-06-08T22:47:24.240Z,6.43
2017-06-08T22:49:51.630Z,6.73
2017-06-08T22:52:18.931Z,6.23
2017-06-08T22:54:46.390Z,6.23
2017-06-08T22:57:13.713Z,7.33
2017-06-08T22:59:41.070Z,6.87
2017-06-08T23:02:08.402Z,6.97
2017-06-08T23:04:35.763Z,6.90
2017-06-08T23:07:03.065Z,6.37
2017-06-08T23:09:30.384Z,6.80
2017-06-08T23:11:57.780Z,7.00
2017-06-08T23:14:25.086Z,6.90
2017-06-08T23:16:52.445Z,6.03
2017-06-08T23:19:19.778Z,6.60
2017-06-08T23:21:47.091Z,7.00
2017-06-08T23:24:14.402Z,7.37
2017-06-08T23:26:41.730Z,7.73
2017-06-08T23:29:09.030Z,6.83
2017-06-08T23:31:36.398Z,7.47
2017-06-08T23:34:03.738Z,7.30
2017-06-08T23:36:31.081Z,7.00
2017-06-08T23:38:58.425Z,7.37
2017-06-08T23:41:25.777Z,7.20
2017-06-08T23:43:53.090Z,6.60
2017-06-08T23:46:20.429Z,6.30
2017-06-08T23:48:47.753Z,6.80
2017-06-08T23:51:15.069Z,6.10
2017-06-08T23:53:42.408Z,6.30
2017-06-08T23:56:09.715Z,5.67
2017-06-08T23:58:37.041Z,6.00
